sensor_id;sensor_type;location;lat;lon;timestamp;temperature;humidity
9847;DHT22;68671;50.084;8.794;2023-05-16T00:00:27;16.20;99.90
9847;DHT22;68671;50.084;8.794;2023-05-16T00:02:55;16.20;99.90
9847;DHT22;68671;50.084;8.794;2023-05-16T00:05:22;16.10;99.90
9847;DHT22;68671;50.084;8.794;2023-05-16T00:07:50;16.10;99.90
9847;DHT22;68671;50.084;8.794;2023-05-16T00:10:18;16.00;99.90
9847;DHT22;68671;50.084;8.794;2023-05-16T00:12:45;16.00;99.90
9847;DHT22;68671;50.084;8.794;2023-05-16T00:15:17;16.00;99.90
9847;DHT22;68671;50.084;8.794;2023-05-16T00:17:45;16.00;99.90
9847;DHT22;68671;50.084;8.794;2023-05-16T00:20:12;16.00;99.90
9847;DHT22;68671;50.084;8.794;2023-05-16T00:22:41;16.00;99.90
9847;DHT22;68671;50.084;8.794;2023-05-16T00:25:08;16.00;99.90
9847;DHT22;68671;50.084;8.794;2023-05-16T00:27:37;16.00;99.90
9847;DHT22;68671;50.084;8.794;2023-05-16T00:30:05;16.00;99.90
9847;DHT22;68671;50.084;8.794;2023-05-16T00:32:32;15.90;99.90
9847;DHT22;68671;50.084;8.794;2023-05-16T00:34:59;15.90;99.90
9847;DHT22;68671;50.084;8.794;2023-05-16T00:37:26;15.80;99.90
9847;DHT22;68671;50.084;8.794;2023-05-16T00:39:53;15.80;99.90
9847;DHT22;68671;50.084;8.794;2023-05-16T00:42:20;15.80;99.90
9847;DHT22;68671;50.084;8.794;2023-05-16T00:44:49;15.70;99.90
9847;DHT22;68671;50.084;8.794;2023-05-16T00:47:16;15.70;99.90
9847;DHT22;68671;50.084;8.794;2023-05-16T00:49:43;15.60;99.90
9847;DHT22;68671;50.084;8.794;2023-05-16T00:52:10;15.60;99.90
9847;DHT22;68671;50.084;8.794;2023-05-16T00:54:37;15.50;99.90
9847;DHT22;68671;50.084;8.794;2023-05-16T00:57:04;15.50;99.90
9847;DHT22;68671;50.084;8.794;2023-05-16T00:59:32;15.40;99.90
9847;DHT22;68671;50.084;8.794;2023-05-16T01:02:01;15.40;99.90
9847;DHT22;68671;50.084;8.794;2023-05-16T01:04:28;15.40;99.90
9847;DHT22;68671;50.084;8.794;2023-05-16T01:06:56;15.40;99.90
9847;DHT22;68671;50.084;8.794;2023-05-16T01:09:23;15.40;99.90
9847;DHT22;68671;50.084;8.794;2023-05-16T01:11:55;15.30;99.90
9847;DHT22;68671;50.084;8.794;2023-05-16T01:14:31;15.20;99.90
9847;DHT22;68671;50.084;8.794;2023-05-16T01:17:07;15.10;99.90
9847;DHT22;68671;50.084;8.794;2023-05-16T01:19:59;15.00;99.90
9847;DHT22;68671;50.084;8.794;2023-05-16T01:22:37;14.90;99.90
9847;DHT22;68671;50.084;8.794;2023-05-16T01:25:16;14.80;99.90
9847;DHT22;68671;50.084;8.794;2023-05-16T01:27:47;14.70;99.90
9847;DHT22;68671;50.084;8.794;2023-05-16T01:30:18;14.70;99.90
9847;DHT22;68671;50.084;8.794;2023-05-16T01:32:45;14.60;99.90
9847;DHT22;68671;50.084;8.794;2023-05-16T01:35:15;14.60;99.90
9847;DHT22;68671;50.084;8.794;2023-05-16T01:37:47;14.60;99.90
9847;DHT22;68671;50.084;8.794;2023-05-16T01:40:23;14.60;99.90
9847;DHT22;68671;50.084;8.794;2023-05-16T01:42:54;14.60;99.90
9847;DHT22;68671;50.084;8.794;2023-05-16T01:45:25;14.60;99.90
9847;DHT22;68671;50.084;8.794;2023-05-16T01:48:11;14.50;99.90
9847;DHT22;68671;50.084;8.794;2023-05-16T01:50:43;14.50;99.90
9847;DHT22;68671;50.084;8.794;2023-05-16T01:53:16;14.60;99.90
9847;DHT22;68671;50.084;8.794;2023-05-16T01:55:46;14.50;99.90
9847;DHT22;68671;50.084;8.794;2023-05-16T01:58:16;14.50;99.90
9847;DHT22;68671;50.084;8.794;2023-05-16T02:00:44;14.50;99.90
9847;DHT22;68671;50.084;8.794;2023-05-16T02:03:12;14.50;99.90
9847;DHT22;68671;50.084;8.794;2023-05-16T02:05:38;14.40;99.90
9847;DHT22;68671;50.084;8.794;2023-05-16T02:08:06;14.50;99.90
9847;DHT22;68671;50.084;8.794;2023-05-16T02:10:33;14.50;99.90
9847;DHT22;68671;50.084;8.794;2023-05-16T02:13:00;14.50;99.90
9847;DHT22;68671;50.084;8.794;2023-05-16T02:15:28;14.40;99.90
9847;DHT22;68671;50.084;8.794;2023-05-16T02:17:55;14.40;99.90
9847;DHT22;68671;50.084;8.794;2023-05-16T02:20:23;14.50;99.90
9847;DHT22;68671;50.084;8.794;2023-05-16T02:22:50;14.50;99.90
9847;DHT22;68671;50.084;8.794;2023-05-16T02:25:17;14.60;99.90
9847;DHT22;68671;50.084;8.794;2023-05-16T02:27:44;14.50;99.90
9847;DHT22;68671;50.084;8.794;2023-05-16T02:30:12;14.50;99.90
9847;DHT22;68671;50.084;8.794;2023-05-16T02:32:41;14.50;99.90
9847;DHT22;68671;50.084;8.794;2023-05-16T02:35:09;14.50;99.90
9847;DHT22;68671;50.084;8.794;2023-05-16T02:37:37;14.60;99.90
9847;DHT22;68671;50.084;8.794;2023-05-16T02:40:05;14.60;99.90
9847;DHT22;68671;50.084;8.794;2023-05-16T02:42:32;14.60;99.90
9847;DHT22;68671;50.084;8.794;2023-05-16T02:44:59;14.60;99.90
9847;DHT22;68671;50.084;8.794;2023-05-16T02:47:26;14.50;99.90
9847;DHT22;68671;50.084;8.794;2023-05-16T02:49:55;14.50;99.90
9847;DHT22;68671;50.084;8.794;2023-05-16T02:52:22;14.50;99.90
9847;DHT22;68671;50.084;8.794;2023-05-16T02:54:49;14.50;99.90
9847;DHT22;68671;50.084;8.794;2023-05-16T02:57:18;14.40;99.90
9847;DHT22;68671;50.084;8.794;2023-05-16T02:59:45;14.40;99.90
9847;DHT22;68671;50.084;8.794;2023-05-16T03:02:12;14.40;99.90
9847;DHT22;68671;50.084;8.794;2023-05-16T03:04:39;14.40;99.90
9847;DHT22;68671;50.084;8.794;2023-05-16T03:07:08;14.40;99.90
9847;DHT22;68671;50.084;8.794;2023-05-16T03:09:35;14.30;99.90
9847;DHT22;68671;50.084;8.794;2023-05-16T03:12:02;14.30;99.90
9847;DHT22;68671;50.084;8.794;2023-05-16T03:14:29;14.20;99.90
9847;DHT22;68671;50.084;8.794;2023-05-16T03:16:56;14.20;99.90
9847;DHT22;68671;50.084;8.794;2023-05-16T03:19:23;14.10;99.90
9847;DHT22;68671;50.084;8.794;2023-05-16T03:21:50;14.10;99.90
9847;DHT22;68671;50.084;8.794;2023-05-16T03:24:18;14.00;99.90
9847;DHT22;68671;50.084;8.794;2023-05-16T03:26:47;14.00;99.90
9847;DHT22;68671;50.084;8.794;2023-05-16T03:29:14;14.00;99.90
9847;DHT22;68671;50.084;8.794;2023-05-16T03:31:41;14.00;99.90
9847;DHT22;68671;50.084;8.794;2023-05-16T03:34:08;13.90;99.90
9847;DHT22;68671;50.084;8.794;2023-05-16T03:36:35;13.80;99.90
9847;DHT22;68671;50.084;8.794;2023-05-16T03:39:02;13.80;99.90
9847;DHT22;68671;50.084;8.794;2023-05-16T03:41:30;13.80;99.90
9847;DHT22;68671;50.084;8.794;2023-05-16T03:43:57;13.70;99.90
9847;DHT22;68671;50.084;8.794;2023-05-16T03:46:24;13.70;99.90
9847;DHT22;68671;50.084;8.794;2023-05-16T03:48:51;13.70;99.90
9847;DHT22;68671;50.084;8.794;2023-05-16T03:51:18;13.70;99.90
9847;DHT22;68671;50.084;8.794;2023-05-16T03:53:46;13.70;99.90
9847;DHT22;68671;50.084;8.794;2023-05-16T03:56:12;13.70;99.90
9847;DHT22;68671;50.084;8.794;2023-05-16T03:58:41;13.60;99.90
9847;DHT22;68671;50.084;8.794;2023-05-16T04:01:08;13.60;99.90
9847;DHT22;68671;50.084;8.794;2023-05-16T04:03:35;13.50;99.90
9847;DHT22;68671;50.084;8.794;2023-05-16T04:06:03;13.50;99.90
9847;DHT22;68671;50.084;8.794;2023-05-16T04:08:30;13.50;99.90
9847;DHT22;68671;50.084;8.794;2023-05-16T04:10:57;13.50;99.90
9847;DHT22;68671;50.084;8.794;2023-05-16T04:13:24;13.50;99.90
9847;DHT22;68671;50.084;8.794;2023-05-16T04:15:53;13.50;99.90
9847;DHT22;68671;50.084;8.794;2023-05-16T04:18:20;13.50;99.90
9847;DHT22;68671;50.084;8.794;2023-05-16T04:20:47;13.50;99.90
9847;DHT22;68671;50.084;8.794;2023-05-16T04:23:14;13.50;99.90
9847;DHT22;68671;50.084;8.794;2023-05-16T04:25:41;13.50;99.90
9847;DHT22;68671;50.084;8.794;2023-05-16T04:28:08;13.50;99.90
9847;DHT22;68671;50.084;8.794;2023-05-16T04:30:36;13.60;99.90
9847;DHT22;68671;50.084;8.794;2023-05-16T04:33:04;13.60;99.90
9847;DHT22;68671;50.084;8.794;2023-05-16T04:35:32;13.60;99.90
9847;DHT22;68671;50.084;8.794;2023-05-16T04:37:59;13.70;99.90
9847;DHT22;68671;50.084;8.794;2023-05-16T04:40:26;13.70;99.90
9847;DHT22;68671;50.084;8.794;2023-05-16T04:42:53;13.80;99.90
9847;DHT22;68671;50.084;8.794;2023-05-16T04:45:20;13.90;99.90
9847;DHT22;68671;50.084;8.794;2023-05-16T04:47:47;14.00;99.90
9847;DHT22;68671;50.084;8.794;2023-05-16T04:50:17;14.20;99.90
9847;DHT22;68671;50.084;8.794;2023-05-16T04:52:44;14.40;99.90
9847;DHT22;68671;50.084;8.794;2023-05-16T04:55:11;14.60;99.90
9847;DHT22;68671;50.084;8.794;2023-05-16T04:57:38;14.90;99.90
9847;DHT22;68671;50.084;8.794;2023-05-16T05:00:06;15.10;99.90
9847;DHT22;68671;50.084;8.794;2023-05-16T05:02:35;15.50;99.90
9847;DHT22;68671;50.084;8.794;2023-05-16T05:05:02;15.90;99.90
9847;DHT22;68671;50.084;8.794;2023-05-16T05:07:30;16.30;99.90
9847;DHT22;68671;50.084;8.794;2023-05-16T05:09:57;16.50;99.90
9847;DHT22;68671;50.084;8.794;2023-05-16T05:12:24;16.80;99.90
9847;DHT22;68671;50.084;8.794;2023-05-16T05:14:52;17.00;99.90
9847;DHT22;68671;50.084;8.794;2023-05-16T05:17:19;17.30;99.90
9847;DHT22;68671;50.084;8.794;2023-05-16T05:19:47;17.50;99.90
9847;DHT22;68671;50.084;8.794;2023-05-16T05:22:14;17.80;99.90
9847;DHT22;68671;50.084;8.794;2023-05-16T05:24:43;18.00;99.90
9847;DHT22;68671;50.084;8.794;2023-05-16T05:27:10;18.40;99.90
9847;DHT22;68671;50.084;8.794;2023-05-16T05:29:36;18.60;99.90
9847;DHT22;68671;50.084;8.794;2023-05-16T05:32:04;18.90;99.90
9847;DHT22;68671;50.084;8.794;2023-05-16T05:34:33;19.20;99.90
9847;DHT22;68671;50.084;8.794;2023-05-16T05:37:00;19.50;99.90
9847;DHT22;68671;50.084;8.794;2023-05-16T05:39:27;19.90;99.90
9847;DHT22;68671;50.084;8.794;2023-05-16T05:41:55;20.20;99.90
9847;DHT22;68671;50.084;8.794;2023-05-16T05:44:23;20.50;99.90
9847;DHT22;68671;50.084;8.794;2023-05-16T05:46:50;20.80;99.30
9847;DHT22;68671;50.084;8.794;2023-05-16T05:49:17;21.10;99.10
9847;DHT22;68671;50.084;8.794;2023-05-16T05:51:44;21.30;98.20
9847;DHT22;68671;50.084;8.794;2023-05-16T05:54:12;21.50;97.80
9847;DHT22;68671;50.084;8.794;2023-05-16T05:56:39;21.50;95.70
9847;DHT22;68671;50.084;8.794;2023-05-16T05:59:07;21.40;94.70
9847;DHT22;68671;50.084;8.794;2023-05-16T06:01:34;21.30;95.50
9847;DHT22;68671;50.084;8.794;2023-05-16T06:04:02;21.50;95.60
9847;DHT22;68671;50.084;8.794;2023-05-16T06:06:29;21.80;95.70
9847;DHT22;68671;50.084;8.794;2023-05-16T06:08:59;22.20;95.90
9847;DHT22;68671;50.084;8.794;2023-05-16T06:11:26;22.70;94.90
9847;DHT22;68671;50.084;8.794;2023-05-16T06:13:53;22.90;93.20
9847;DHT22;68671;50.084;8.794;2023-05-16T06:16:24;23.10;92.90
9847;DHT22;68671;50.084;8.794;2023-05-16T06:18:51;23.50;92.70
9847;DHT22;68671;50.084;8.794;2023-05-16T06:21:19;23.80;91.70
9847;DHT22;68671;50.084;8.794;2023-05-16T06:23:46;23.90;90.20
9847;DHT22;68671;50.084;8.794;2023-05-16T06:26:14;23.70;87.70
9847;DHT22;68671;50.084;8.794;2023-05-16T06:28:40;23.50;86.10
9847;DHT22;68671;50.084;8.794;2023-05-16T06:31:07;23.40;86.40
9847;DHT22;68671;50.084;8.794;2023-05-16T06:33:36;23.50;85.40
9847;DHT22;68671;50.084;8.794;2023-05-16T06:36:03;23.50;83.90
9847;DHT22;68671;50.084;8.794;2023-05-16T06:38:30;23.50;83.70
9847;DHT22;68671;50.084;8.794;2023-05-16T06:40:57;23.30;82.80
9847;DHT22;68671;50.084;8.794;2023-05-16T06:43:24;23.20;83.40
9847;DHT22;68671;50.084;8.794;2023-05-16T06:45:51;23.20;82.40
9847;DHT22;68671;50.084;8.794;2023-05-16T06:48:18;23.20;81.30
9847;DHT22;68671;50.084;8.794;2023-05-16T06:50:48;23.20;81.10
9847;DHT22;68671;50.084;8.794;2023-05-16T06:53:15;23.10;79.70
9847;DHT22;68671;50.084;8.794;2023-05-16T06:55:42;22.90;77.40
9847;DHT22;68671;50.084;8.794;2023-05-16T06:58:09;22.70;79.60
9847;DHT22;68671;50.084;8.794;2023-05-16T07:00:36;22.70;80.50
9847;DHT22;68671;50.084;8.794;2023-05-16T07:03:03;22.80;78.70
9847;DHT22;68671;50.084;8.794;2023-05-16T07:05:30;22.80;81.30
9847;DHT22;68671;50.084;8.794;2023-05-16T07:07:58;23.30;82.80
9847;DHT22;68671;50.084;8.794;2023-05-16T07:10:25;24.00;82.30
9847;DHT22;68671;50.084;8.794;2023-05-16T07:12:52;24.70;80.40
9847;DHT22;68671;50.084;8.794;2023-05-16T07:15:20;25.20;74.40
9847;DHT22;68671;50.084;8.794;2023-05-16T07:17:46;25.20;69.70
9847;DHT22;68671;50.084;8.794;2023-05-16T07:20:15;25.00;68.20
9847;DHT22;68671;50.084;8.794;2023-05-16T07:22:42;25.00;69.50
9847;DHT22;68671;50.084;8.794;2023-05-16T07:25:10;25.10;68.50
9847;DHT22;68671;50.084;8.794;2023-05-16T07:27:39;25.10;66.50
9847;DHT22;68671;50.084;8.794;2023-05-16T07:30:10;24.80;66.00
9847;DHT22;68671;50.084;8.794;2023-05-16T07:32:37;24.80;67.10
9847;DHT22;68671;50.084;8.794;2023-05-16T07:35:04;24.90;66.40
9847;DHT22;68671;50.084;8.794;2023-05-16T07:37:32;25.00;66.60
9847;DHT22;68671;50.084;8.794;2023-05-16T07:39:59;25.30;67.40
9847;DHT22;68671;50.084;8.794;2023-05-16T07:42:27;26.00;67.00
9847;DHT22;68671;50.084;8.794;2023-05-16T07:44:54;26.70;66.80
9847;DHT22;68671;50.084;8.794;2023-05-16T07:47:21;27.50;66.00
9847;DHT22;68671;50.084;8.794;2023-05-16T07:49:48;28.30;64.70
9847;DHT22;68671;50.084;8.794;2023-05-16T07:52:15;28.90;62.40
9847;DHT22;68671;50.084;8.794;2023-05-16T07:54:42;29.50;59.80
9847;DHT22;68671;50.084;8.794;2023-05-16T07:57:09;29.70;55.80
9847;DHT22;68671;50.084;8.794;2023-05-16T07:59:38;29.80;53.90
9847;DHT22;68671;50.084;8.794;2023-05-16T08:02:05;29.70;50.00
9847;DHT22;68671;50.084;8.794;2023-05-16T08:04:32;29.20;48.20
9847;DHT22;68671;50.084;8.794;2023-05-16T08:06:59;28.60;47.00
9847;DHT22;68671;50.084;8.794;2023-05-16T08:09:26;28.00;46.70
9847;DHT22;68671;50.084;8.794;2023-05-16T08:11:52;27.50;46.00
9847;DHT22;68671;50.084;8.794;2023-05-16T08:14:20;26.90;45.50
9847;DHT22;68671;50.084;8.794;2023-05-16T08:16:48;26.40;46.60
9847;DHT22;68671;50.084;8.794;2023-05-16T08:19:15;25.90;46.80
9847;DHT22;68671;50.084;8.794;2023-05-16T08:21:56;25.50;47.20
9847;DHT22;68671;50.084;8.794;2023-05-16T08:24:26;25.20;49.70
9847;DHT22;68671;50.084;8.794;2023-05-16T08:26:55;24.90;49.70
9847;DHT22;68671;50.084;8.794;2023-05-16T08:29:23;24.60;49.50
9847;DHT22;68671;50.084;8.794;2023-05-16T08:31:51;24.20;49.00
9847;DHT22;68671;50.084;8.794;2023-05-16T08:34:18;23.80;48.10
9847;DHT22;68671;50.084;8.794;2023-05-16T08:36:45;23.00;48.00
9847;DHT22;68671;50.084;8.794;2023-05-16T08:39:12;22.30;49.10
9847;DHT22;68671;50.084;8.794;2023-05-16T08:41:40;22.00;50.40
9847;DHT22;68671;50.084;8.794;2023-05-16T08:44:07;21.60;49.90
9847;DHT22;68671;50.084;8.794;2023-05-16T08:46:36;21.10;50.30
9847;DHT22;68671;50.084;8.794;2023-05-16T08:49:05;20.80;51.10
9847;DHT22;68671;50.084;8.794;2023-05-16T08:51:32;20.60;51.70
9847;DHT22;68671;50.084;8.794;2023-05-16T08:54:03;20.50;52.00
9847;DHT22;68671;50.084;8.794;2023-05-16T08:56:33;20.30;51.70
9847;DHT22;68671;50.084;8.794;2023-05-16T08:59:01;20.00;53.10
9847;DHT22;68671;50.084;8.794;2023-05-16T09:01:29;20.00;54.10
9847;DHT22;68671;50.084;8.794;2023-05-16T09:03:57;19.90;54.20
9847;DHT22;68671;50.084;8.794;2023-05-16T09:06:26;19.70;54.70
9847;DHT22;68671;50.084;8.794;2023-05-16T09:08:53;19.60;55.20
9847;DHT22;68671;50.084;8.794;2023-05-16T09:11:20;19.60;55.50
9847;DHT22;68671;50.084;8.794;2023-05-16T09:13:47;19.60;55.70
9847;DHT22;68671;50.084;8.794;2023-05-16T09:16:16;19.70;56.10
9847;DHT22;68671;50.084;8.794;2023-05-16T09:18:45;19.70;55.90
9847;DHT22;68671;50.084;8.794;2023-05-16T09:21:13;19.80;56.00
9847;DHT22;68671;50.084;8.794;2023-05-16T09:23:43;19.90;55.50
9847;DHT22;68671;50.084;8.794;2023-05-16T09:26:11;19.90;56.00
9847;DHT22;68671;50.084;8.794;2023-05-16T09:28:38;20.00;56.20
9847;DHT22;68671;50.084;8.794;2023-05-16T09:31:18;20.20;56.40
9847;DHT22;68671;50.084;8.794;2023-05-16T09:33:46;20.20;56.40
9847;DHT22;68671;50.084;8.794;2023-05-16T09:36:14;20.20;56.20
9847;DHT22;68671;50.084;8.794;2023-05-16T09:38:43;20.20;55.60
9847;DHT22;68671;50.084;8.794;2023-05-16T09:41:10;19.90;54.90
9847;DHT22;68671;50.084;8.794;2023-05-16T09:43:39;19.80;55.50
9847;DHT22;68671;50.084;8.794;2023-05-16T09:46:06;19.70;56.30
9847;DHT22;68671;50.084;8.794;2023-05-16T09:48:45;19.80;56.60
9847;DHT22;68671;50.084;8.794;2023-05-16T09:51:21;19.70;56.40
9847;DHT22;68671;50.084;8.794;2023-05-16T09:53:49;19.80;56.40
9847;DHT22;68671;50.084;8.794;2023-05-16T09:56:17;20.00;56.30
9847;DHT22;68671;50.084;8.794;2023-05-16T09:58:44;20.20;56.00
9847;DHT22;68671;50.084;8.794;2023-05-16T10:01:12;20.30;55.70
9847;DHT22;68671;50.084;8.794;2023-05-16T10:03:41;20.40;55.20
9847;DHT22;68671;50.084;8.794;2023-05-16T10:06:09;20.40;54.90
9847;DHT22;68671;50.084;8.794;2023-05-16T10:11:20;20.40;54.70
9847;DHT22;68671;50.084;8.794;2023-05-16T10:23:41;20.20;56.60
9847;DHT22;68671;50.084;8.794;2023-05-16T10:26:02;20.30;57.00
9847;DHT22;68671;50.084;8.794;2023-05-16T10:28:30;20.40;57.10
9847;DHT22;68671;50.084;8.794;2023-05-16T10:31:00;20.50;57.80
9847;DHT22;68671;50.084;8.794;2023-05-16T10:33:27;20.60;58.10
9847;DHT22;68671;50.084;8.794;2023-05-16T10:35:55;20.80;58.00
9847;DHT22;68671;50.084;8.794;2023-05-16T10:38:22;20.90;57.80
9847;DHT22;68671;50.084;8.794;2023-05-16T10:40:50;21.00;58.20
9847;DHT22;68671;50.084;8.794;2023-05-16T10:43:25;21.20;58.10
9847;DHT22;68671;50.084;8.794;2023-05-16T10:45:55;21.30;58.80
9847;DHT22;68671;50.084;8.794;2023-05-16T10:48:36;21.40;58.30
9847;DHT22;68671;50.084;8.794;2023-05-16T10:51:36;21.60;58.10
9847;DHT22;68671;50.084;8.794;2023-05-16T10:54:08;21.70;57.60
9847;DHT22;68671;50.084;8.794;2023-05-16T10:56:35;21.70;57.70
9847;DHT22;68671;50.084;8.794;2023-05-16T10:59:02;21.70;57.70
9847;DHT22;68671;50.084;8.794;2023-05-16T11:01:32;21.80;57.40
9847;DHT22;68671;50.084;8.794;2023-05-16T11:04:00;21.80;57.00
9847;DHT22;68671;50.084;8.794;2023-05-16T11:06:29;21.80;56.70
9847;DHT22;68671;50.084;8.794;2023-05-16T11:09:03;21.60;56.00
9847;DHT22;68671;50.084;8.794;2023-05-16T11:11:41;21.40;56.60
9847;DHT22;68671;50.084;8.794;2023-05-16T11:14:08;21.30;56.70
9847;DHT22;68671;50.084;8.794;2023-05-16T11:16:47;21.10;56.50
9847;DHT22;68671;50.084;8.794;2023-05-16T11:19:27;21.00;56.80
9847;DHT22;68671;50.084;8.794;2023-05-16T11:22:06;21.00;57.60
9847;DHT22;68671;50.084;8.794;2023-05-16T11:24:35;21.10;57.60
9847;DHT22;68671;50.084;8.794;2023-05-16T11:27:03;21.10;57.60
9847;DHT22;68671;50.084;8.794;2023-05-16T11:29:31;21.10;57.30
9847;DHT22;68671;50.084;8.794;2023-05-16T11:31:59;21.20;57.60
9847;DHT22;68671;50.084;8.794;2023-05-16T11:34:26;21.20;57.70
9847;DHT22;68671;50.084;8.794;2023-05-16T11:36:53;21.30;57.70
9847;DHT22;68671;50.084;8.794;2023-05-16T11:39:20;21.40;57.50
9847;DHT22;68671;50.084;8.794;2023-05-16T11:41:51;21.40;57.00
9847;DHT22;68671;50.084;8.794;2023-05-16T11:44:18;21.40;56.60
9847;DHT22;68671;50.084;8.794;2023-05-16T11:46:48;21.30;57.20
9847;DHT22;68671;50.084;8.794;2023-05-16T11:49:16;21.10;58.10
9847;DHT22;68671;50.084;8.794;2023-05-16T11:51:44;20.90;58.50
9847;DHT22;68671;50.084;8.794;2023-05-16T11:54:11;20.80;58.90
9847;DHT22;68671;50.084;8.794;2023-05-16T11:56:39;20.70;59.00
9847;DHT22;68671;50.084;8.794;2023-05-16T11:59:09;20.50;58.60
9847;DHT22;68671;50.084;8.794;2023-05-16T12:01:37;20.50;58.10
9847;DHT22;68671;50.084;8.794;2023-05-16T12:04:07;20.30;57.80
9847;DHT22;68671;50.084;8.794;2023-05-16T12:06:34;20.30;58.00
9847;DHT22;68671;50.084;8.794;2023-05-16T12:09:02;20.20;57.60
9847;DHT22;68671;50.084;8.794;2023-05-16T12:11:36;20.20;57.00
9847;DHT22;68671;50.084;8.794;2023-05-16T12:14:03;20.00;56.40
9847;DHT22;68671;50.084;8.794;2023-05-16T12:16:32;20.00;56.70
9847;DHT22;68671;50.084;8.794;2023-05-16T12:19:01;20.00;56.80
9847;DHT22;68671;50.084;8.794;2023-05-16T12:21:29;20.00;57.00
9847;DHT22;68671;50.084;8.794;2023-05-16T12:23:56;20.00;57.30
9847;DHT22;68671;50.084;8.794;2023-05-16T12:26:24;20.10;57.20
9847;DHT22;68671;50.084;8.794;2023-05-16T12:28:52;20.20;57.10
9847;DHT22;68671;50.084;8.794;2023-05-16T12:31:21;20.30;57.00
9847;DHT22;68671;50.084;8.794;2023-05-16T12:33:52;20.30;57.30
9847;DHT22;68671;50.084;8.794;2023-05-16T12:36:19;20.30;57.90
9847;DHT22;68671;50.084;8.794;2023-05-16T12:38:46;20.30;60.50
9847;DHT22;68671;50.084;8.794;2023-05-16T12:41:17;20.30;60.30
9847;DHT22;68671;50.084;8.794;2023-05-16T12:43:44;20.30;60.40
9847;DHT22;68671;50.084;8.794;2023-05-16T12:46:11;20.30;60.10
9847;DHT22;68671;50.084;8.794;2023-05-16T12:48:39;20.30;59.40
9847;DHT22;68671;50.084;8.794;2023-05-16T12:51:13;20.30;58.70
9847;DHT22;68671;50.084;8.794;2023-05-16T12:53:41;20.20;58.70
9847;DHT22;68671;50.084;8.794;2023-05-16T12:56:09;20.20;59.00
9847;DHT22;68671;50.084;8.794;2023-05-16T12:58:37;20.10;58.40
9847;DHT22;68671;50.084;8.794;2023-05-16T13:01:04;20.10;57.70
9847;DHT22;68671;50.084;8.794;2023-05-16T13:03:32;20.20;57.10
9847;DHT22;68671;50.084;8.794;2023-05-16T13:05:59;20.10;56.10
9847;DHT22;68671;50.084;8.794;2023-05-16T13:08:29;20.10;55.70
9847;DHT22;68671;50.084;8.794;2023-05-16T13:10:56;20.00;54.90
9847;DHT22;68671;50.084;8.794;2023-05-16T13:13:23;19.90;54.30
9847;DHT22;68671;50.084;8.794;2023-05-16T13:15:50;19.90;53.40
9847;DHT22;68671;50.084;8.794;2023-05-16T13:18:17;19.80;53.40
9847;DHT22;68671;50.084;8.794;2023-05-16T13:20:44;19.80;53.90
9847;DHT22;68671;50.084;8.794;2023-05-16T13:23:11;19.80;53.80
9847;DHT22;68671;50.084;8.794;2023-05-16T13:25:39;19.70;54.10
9847;DHT22;68671;50.084;8.794;2023-05-16T13:28:06;19.70;54.20
9847;DHT22;68671;50.084;8.794;2023-05-16T13:30:33;19.70;54.20
9847;DHT22;68671;50.084;8.794;2023-05-16T13:33:00;19.70;54.50
9847;DHT22;68671;50.084;8.794;2023-05-16T13:35:27;19.70;54.60
9847;DHT22;68671;50.084;8.794;2023-05-16T13:37:54;19.40;54.90
9847;DHT22;68671;50.084;8.794;2023-05-16T13:40:21;19.40;55.50
9847;DHT22;68671;50.084;8.794;2023-05-16T13:42:49;19.40;55.90
9847;DHT22;68671;50.084;8.794;2023-05-16T13:45:16;19.50;56.00
9847;DHT22;68671;50.084;8.794;2023-05-16T13:47:43;19.50;56.10
9847;DHT22;68671;50.084;8.794;2023-05-16T13:50:10;19.60;56.10
9847;DHT22;68671;50.084;8.794;2023-05-16T13:52:37;19.70;55.60
9847;DHT22;68671;50.084;8.794;2023-05-16T13:55:05;19.70;55.30
9847;DHT22;68671;50.084;8.794;2023-05-16T13:57:32;19.70;55.50
9847;DHT22;68671;50.084;8.794;2023-05-16T14:00:01;19.70;55.30
9847;DHT22;68671;50.084;8.794;2023-05-16T14:02:32;19.70;55.00
9847;DHT22;68671;50.084;8.794;2023-05-16T14:04:59;19.60;55.30
9847;DHT22;68671;50.084;8.794;2023-05-16T14:07:26;19.70;55.80
9847;DHT22;68671;50.084;8.794;2023-05-16T14:09:53;19.80;56.00
9847;DHT22;68671;50.084;8.794;2023-05-16T14:12:20;19.90;56.00
9847;DHT22;68671;50.084;8.794;2023-05-16T14:14:47;20.00;55.50
9847;DHT22;68671;50.084;8.794;2023-05-16T14:17:16;20.10;55.30
9847;DHT22;68671;50.084;8.794;2023-05-16T14:19:43;20.10;55.00
9847;DHT22;68671;50.084;8.794;2023-05-16T14:22:10;20.00;54.60
9847;DHT22;68671;50.084;8.794;2023-05-16T14:24:37;20.00;54.70
9847;DHT22;68671;50.084;8.794;2023-05-16T14:27:04;20.00;54.80
9847;DHT22;68671;50.084;8.794;2023-05-16T14:29:31;19.90;54.60
9847;DHT22;68671;50.084;8.794;2023-05-16T14:31:58;19.80;54.40
9847;DHT22;68671;50.084;8.794;2023-05-16T14:34:26;19.70;54.80
9847;DHT22;68671;50.084;8.794;2023-05-16T14:36:53;19.70;54.70
9847;DHT22;68671;50.084;8.794;2023-05-16T14:39:20;19.70;53.90
9847;DHT22;68671;50.084;8.794;2023-05-16T14:41:50;19.70;53.90
9847;DHT22;68671;50.084;8.794;2023-05-16T14:44:16;19.60;54.40
9847;DHT22;68671;50.084;8.794;2023-05-16T14:46:46;19.70;54.70
9847;DHT22;68671;50.084;8.794;2023-05-16T14:49:12;19.70;55.30
9847;DHT22;68671;50.084;8.794;2023-05-16T14:51:41;19.60;55.80
9847;DHT22;68671;50.084;8.794;2023-05-16T14:54:09;19.60;55.90
9847;DHT22;68671;50.084;8.794;2023-05-16T14:56:36;19.60;55.80
9847;DHT22;68671;50.084;8.794;2023-05-16T14:59:03;19.50;56.10
9847;DHT22;68671;50.084;8.794;2023-05-16T15:01:30;19.50;56.20
9847;DHT22;68671;50.084;8.794;2023-05-16T15:03:57;19.40;56.20
9847;DHT22;68671;50.084;8.794;2023-05-16T15:06:24;19.20;57.10
9847;DHT22;68671;50.084;8.794;2023-05-16T15:08:52;19.10;56.70
9847;DHT22;68671;50.084;8.794;2023-05-16T15:11:20;19.00;57.30
9847;DHT22;68671;50.084;8.794;2023-05-16T15:13:47;19.00;57.80
9847;DHT22;68671;50.084;8.794;2023-05-16T15:16:14;19.10;58.20
9847;DHT22;68671;50.084;8.794;2023-05-16T15:18:41;19.00;58.20
9847;DHT22;68671;50.084;8.794;2023-05-16T15:21:08;19.10;58.90
9847;DHT22;68671;50.084;8.794;2023-05-16T15:23:35;19.10;59.10
9847;DHT22;68671;50.084;8.794;2023-05-16T15:26:04;19.10;59.10
9847;DHT22;68671;50.084;8.794;2023-05-16T15:28:31;19.20;59.30
9847;DHT22;68671;50.084;8.794;2023-05-16T15:30:58;19.20;59.40
9847;DHT22;68671;50.084;8.794;2023-05-16T15:33:27;19.20;59.30
9847;DHT22;68671;50.084;8.794;2023-05-16T15:35:54;19.20;59.00
9847;DHT22;68671;50.084;8.794;2023-05-16T15:38:22;19.10;58.90
9847;DHT22;68671;50.084;8.794;2023-05-16T15:40:49;19.00;59.00
9847;DHT22;68671;50.084;8.794;2023-05-16T15:43:18;18.90;59.00
9847;DHT22;68671;50.084;8.794;2023-05-16T15:45:45;18.90;59.30
9847;DHT22;68671;50.084;8.794;2023-05-16T15:48:11;18.80;59.30
9847;DHT22;68671;50.084;8.794;2023-05-16T15:50:38;18.70;59.70
9847;DHT22;68671;50.084;8.794;2023-05-16T15:53:06;18.80;60.20
9847;DHT22;68671;50.084;8.794;2023-05-16T15:55:33;18.70;60.50
9847;DHT22;68671;50.084;8.794;2023-05-16T15:58:00;18.80;60.90
9847;DHT22;68671;50.084;8.794;2023-05-16T16:00:29;18.90;61.40
9847;DHT22;68671;50.084;8.794;2023-05-16T16:02:56;19.00;61.10